createdAt,value
2019-01-17T00:02:09.068Z,66.80
2019-01-17T00:05:15.256Z,66.30
2019-01-17T00:11:19.865Z,66.00
2019-01-17T00:14:24.413Z,65.90
2019-01-17T00:17:31.715Z,65.60
2019-01-17T00:20:31.507Z,65.20
2019-01-17T00:23:34.273Z,64.50
2019-01-17T00:26:34.338Z,64.50
2019-01-17T00:29:34.048Z,64.10
2019-01-17T00:32:34.342Z,63.80
2019-01-17T00:35:36.739Z,63.50
2019-01-17T00:38:36.502Z,63.40
2019-01-17T00:41:39.061Z,63.40
2019-01-17T00:44:39.101Z,62.70
2019-01-17T00:47:39.272Z,63.00
2019-01-17T00:50:44.872Z,63.40
2019-01-17T00:53:45.079Z,63.60
2019-01-17T00:56:44.789Z,64.10
2019-01-17T00:59:44.274Z,64.20
2019-01-17T01:02:44.224Z,64.20
2019-01-17T01:05:46.556Z,64.00
2019-01-17T01:08:46.829Z,64.10
2019-01-17T01:11:50.139Z,64.20
2019-01-17T01:14:50.458Z,64.10
2019-01-17T01:17:53.536Z,63.80
2019-01-17T01:23:55.863Z,63.70
2019-01-17T01:26:55.867Z,64.30
2019-01-17T01:35:57.542Z,64.40
2019-01-17T01:48:08.818Z,64.10
2019-01-17T01:54:09.600Z,65.10
2019-01-17T01:56:51.124Z,64.80
2019-01-17T01:59:31.953Z,65.40
2019-01-17T02:02:12.672Z,66.20
2019-01-17T02:04:53.511Z,66.70
2019-01-17T02:07:34.060Z,67.50
2019-01-17T02:10:14.933Z,68.30
2019-01-17T02:12:55.604Z,68.50
2019-01-17T02:15:36.164Z,68.20
2019-01-17T02:18:16.776Z,68.30
2019-01-17T02:20:56.268Z,68.60
2019-01-17T02:26:44.388Z,68.50
2019-01-17T02:29:25.761Z,68.80
2019-01-17T02:32:06.422Z,69.30
2019-01-17T02:34:47.760Z,69.30
2019-01-17T02:37:28.550Z,69.50
2019-01-17T02:40:09.736Z,69.90
2019-01-17T02:42:51.013Z,70.00
2019-01-17T02:45:31.670Z,70.00
2019-01-17T02:48:12.900Z,69.90
2019-01-17T02:50:53.544Z,70.10
2019-01-17T02:53:34.203Z,70.20
2019-01-17T02:56:15.193Z,70.40
2019-01-17T02:58:55.829Z,70.80
2019-01-17T03:01:37.095Z,70.60
2019-01-17T03:04:18.324Z,71.00
2019-01-17T03:06:59.125Z,71.00
2019-01-17T03:09:40.479Z,70.80
2019-01-17T03:12:19.955Z,70.90
2019-01-17T03:17:55.090Z,70.80
2019-01-17T03:20:35.620Z,71.30
2019-01-17T03:23:16.254Z,71.00
2019-01-17T03:25:57.670Z,71.60
2019-01-17T03:28:39.189Z,72.00
2019-01-17T03:31:19.783Z,71.80
2019-01-17T03:34:01.084Z,72.40
2019-01-17T03:36:41.753Z,72.20
2019-01-17T03:39:23.110Z,72.10
2019-01-17T03:42:03.610Z,71.80
2019-01-17T03:44:45.068Z,72.20
2019-01-17T03:47:24.482Z,71.80
2019-01-17T03:50:05.121Z,71.70
2019-01-17T03:52:46.133Z,71.90
2019-01-17T03:55:27.836Z,71.80
2019-01-17T03:58:09.094Z,71.80
2019-01-17T04:00:48.649Z,71.80
2019-01-17T04:03:29.202Z,71.90
2019-01-17T04:06:09.821Z,72.90
2019-01-17T04:08:51.317Z,72.00
2019-01-17T04:11:30.768Z,72.50
2019-01-17T04:17:05.724Z,72.60
2019-01-17T04:19:46.476Z,72.50
2019-01-17T04:22:27.978Z,72.50
2019-01-17T04:25:09.684Z,72.70
2019-01-17T04:27:50.977Z,72.50
2019-01-17T04:30:30.452Z,72.40
2019-01-17T04:33:18.856Z,72.50
2019-01-17T04:36:00.180Z,72.60
2019-01-17T04:38:41.436Z,72.60
2019-01-17T04:41:22.296Z,72.40
2019-01-17T04:44:03.040Z,72.00
2019-01-17T04:46:43.791Z,72.00
2019-01-17T04:49:25.284Z,71.80
2019-01-17T04:52:05.824Z,72.00
2019-01-17T04:54:46.625Z,72.70
2019-01-17T04:57:27.153Z,72.60
2019-01-17T05:00:08.341Z,72.60
2019-01-17T05:02:49.638Z,72.60
2019-01-17T05:05:30.848Z,72.80
2019-01-17T05:08:11.490Z,72.10
2019-01-17T05:10:52.020Z,70.00
2019-01-17T05:13:32.500Z,69.60
2019-01-17T05:16:13.096Z,69.90
2019-01-17T05:18:53.924Z,69.90
2019-01-17T05:21:35.367Z,70.80
2019-01-17T05:24:16.018Z,70.90
2019-01-17T05:26:56.589Z,71.30
2019-01-17T05:29:37.766Z,71.90
2019-01-17T05:32:18.400Z,71.80
2019-01-17T05:34:59.771Z,71.60
2019-01-17T05:37:40.588Z,71.40
2019-01-17T05:40:21.888Z,71.60
2019-01-17T05:43:02.754Z,71.50
2019-01-17T05:45:43.276Z,71.60
2019-01-17T05:48:23.826Z,71.70
2019-01-17T05:51:04.589Z,72.00
2019-01-17T05:53:45.552Z,71.80
2019-01-17T05:56:26.136Z,71.80
2019-01-17T05:59:06.692Z,71.80
2019-01-17T06:01:47.996Z,71.80
2019-01-17T06:04:28.727Z,71.80
2019-01-17T06:07:09.349Z,72.00
2019-01-17T06:09:48.853Z,72.10
2019-01-17T06:12:37.236Z,72.40
2019-01-17T06:18:13.537Z,72.60
2019-01-17T06:20:54.088Z,72.30
2019-01-17T06:23:33.525Z,68.80
2019-01-17T06:26:14.129Z,66.30
2019-01-17T06:28:54.775Z,62.60
2019-01-17T06:31:36.448Z,59.20
2019-01-17T06:34:17.942Z,56.30
2019-01-17T06:36:59.241Z,54.80
2019-01-17T06:39:39.885Z,53.90
2019-01-17T06:42:20.731Z,53.00
2019-01-17T06:45:01.433Z,53.00
2019-01-17T06:47:42.253Z,53.20
2019-01-17T06:50:22.924Z,52.70
2019-01-17T06:53:04.138Z,51.90
2019-01-17T06:55:44.822Z,51.80
2019-01-17T06:58:25.552Z,51.40
2019-01-17T07:01:06.839Z,51.20
2019-01-17T07:03:47.609Z,50.80
2019-01-17T07:06:28.877Z,50.60
2019-01-17T07:09:10.293Z,50.70
2019-01-17T07:11:51.461Z,51.00
2019-01-17T07:14:32.096Z,51.30
2019-01-17T07:17:13.489Z,51.50
2019-01-17T07:19:55.141Z,51.60
2019-01-17T07:22:36.457Z,51.70
2019-01-17T07:25:17.691Z,51.40
2019-01-17T07:27:58.392Z,51.70
2019-01-17T07:30:39.348Z,52.00
2019-01-17T07:33:20.754Z,54.40
2019-01-17T07:36:01.925Z,51.70
2019-01-17T07:38:43.407Z,51.70
2019-01-17T07:41:24.029Z,51.80
2019-01-17T07:44:04.562Z,52.20
2019-01-17T07:46:45.888Z,52.70
2019-01-17T07:49:27.240Z,52.90
2019-01-17T07:52:07.864Z,53.30
2019-01-17T07:54:48.658Z,53.40
2019-01-17T07:57:29.301Z,53.50
2019-01-17T08:00:09.829Z,53.80
2019-01-17T08:02:50.389Z,53.40
2019-01-17T08:05:31.001Z,53.40
2019-01-17T08:08:11.648Z,53.80
2019-01-17T08:10:52.561Z,53.90
2019-01-17T08:13:33.881Z,54.50
2019-01-17T08:16:14.412Z,54.80
2019-01-17T08:18:55.256Z,55.00
2019-01-17T08:21:34.724Z,55.30
2019-01-17T08:24:23.156Z,55.60
2019-01-17T08:27:04.520Z,55.80
2019-01-17T08:29:45.745Z,56.00
2019-01-17T08:32:27.280Z,56.10
2019-01-17T08:35:07.968Z,56.10
2019-01-17T08:37:48.848Z,56.00
2019-01-17T08:40:29.313Z,56.00
2019-01-17T08:43:10.069Z,55.60
2019-01-17T08:45:49.510Z,55.60
2019-01-17T08:51:24.660Z,55.90
2019-01-17T08:54:05.424Z,56.20
2019-01-17T08:56:44.849Z,56.70
2019-01-17T08:59:25.961Z,56.60
2019-01-17T09:02:07.369Z,56.40
2019-01-17T09:04:47.988Z,56.20
2019-01-17T09:07:28.681Z,55.70
2019-01-17T09:10:09.341Z,55.60
2019-01-17T09:12:49.920Z,55.20
2019-01-17T09:15:30.701Z,55.00
2019-01-17T09:18:12.172Z,54.90
2019-01-17T09:20:52.947Z,54.90
2019-01-17T09:23:32.572Z,55.00
2019-01-17T09:29:07.944Z,54.90
2019-01-17T09:31:48.567Z,54.60
2019-01-17T09:34:29.387Z,54.90
2019-01-17T09:37:10.860Z,54.80
2019-01-17T09:39:52.229Z,54.90
2019-01-17T09:42:33.477Z,54.90
2019-01-17T09:45:14.907Z,54.80
2019-01-17T09:47:55.716Z,54.80
2019-01-17T09:50:36.484Z,54.60
2019-01-17T09:53:17.145Z,54.70
2019-01-17T09:55:58.533Z,54.60
2019-01-17T09:58:39.109Z,54.80
2019-01-17T10:01:18.580Z,54.20
2019-01-17T10:07:07.023Z,53.70
2019-01-17T10:09:47.588Z,52.90
2019-01-17T10:12:28.678Z,52.80
2019-01-17T10:15:09.974Z,53.00
2019-01-17T10:17:51.153Z,52.30
2019-01-17T10:20:31.957Z,52.40
2019-01-17T10:23:13.440Z,52.90
2019-01-17T10:25:54.248Z,53.30
2019-01-17T10:28:35.014Z,53.60
2019-01-17T10:31:15.566Z,54.00
2019-01-17T10:33:56.286Z,54.00
2019-01-17T10:40:13.824Z,53.00
2019-01-17T10:43:21.224Z,52.80
2019-01-17T10:46:02.625Z,52.90
2019-01-17T10:48:43.329Z,53.10
2019-01-17T10:51:24.044Z,53.20
2019-01-17T10:54:04.845Z,53.20
2019-01-17T10:56:45.666Z,52.40
2019-01-17T10:59:26.310Z,52.30
2019-01-17T11:02:07.401Z,51.60
2019-01-17T11:04:48.812Z,49.20
2019-01-17T11:07:31.134Z,49.30
2019-01-17T11:10:12.484Z,48.70
2019-01-17T11:12:53.881Z,48.50
2019-01-17T11:18:55.685Z,48.00
2019-01-17T11:21:36.556Z,47.70
2019-01-17T11:24:17.166Z,48.00
2019-01-17T11:26:58.547Z,47.30
2019-01-17T11:29:40.028Z,46.70
2019-01-17T11:32:21.212Z,47.20
2019-01-17T11:35:01.930Z,46.40
2019-01-17T11:37:43.352Z,46.80
2019-01-17T11:40:23.926Z,46.60
2019-01-17T11:43:05.324Z,46.20
2019-01-17T11:45:45.844Z,46.30
2019-01-17T11:48:26.706Z,45.90
2019-01-17T11:51:08.015Z,46.00
2019-01-17T11:53:49.451Z,45.80
2019-01-17T11:56:29.925Z,44.90
2019-01-17T11:59:10.811Z,44.60
2019-01-17T12:01:51.844Z,44.80
2019-01-17T12:04:30.926Z,45.00
2019-01-17T12:10:25.960Z,43.80
2019-01-17T12:13:07.393Z,42.50
2019-01-17T12:15:48.132Z,43.00
2019-01-17T12:18:28.857Z,41.40
2019-01-17T12:21:09.773Z,41.60
2019-01-17T12:23:50.516Z,41.40
2019-01-17T12:26:31.845Z,41.50
2019-01-17T12:29:12.348Z,41.50
2019-01-17T12:31:53.092Z,40.10
2019-01-17T12:34:34.311Z,40.70
2019-01-17T12:37:15.676Z,39.90
2019-01-17T12:39:56.404Z,38.80
2019-01-17T12:42:37.696Z,37.70
2019-01-17T12:45:18.289Z,37.80
2019-01-17T12:47:58.892Z,38.30
2019-01-17T12:50:39.504Z,36.90
2019-01-17T12:53:20.515Z,38.00
2019-01-17T12:56:00.044Z,38.10
2019-01-17T12:58:40.940Z,36.60
2019-01-17T13:01:22.306Z,36.30
2019-01-17T13:04:03.088Z,35.00
2019-01-17T13:06:43.925Z,35.40
2019-01-17T13:09:23.432Z,34.70
2019-01-17T13:14:58.596Z,35.60
2019-01-17T13:17:39.217Z,34.20
2019-01-17T13:20:19.857Z,33.10
2019-01-17T13:23:01.279Z,33.70
2019-01-17T13:25:41.968Z,32.90
2019-01-17T13:28:23.646Z,32.70
2019-01-17T13:31:05.042Z,31.20
2019-01-17T13:33:45.696Z,31.40
2019-01-17T13:36:26.265Z,31.40
2019-01-17T13:39:06.832Z,31.00
2019-01-17T13:41:48.177Z,30.80
2019-01-17T13:44:28.888Z,30.40
2019-01-17T13:47:10.121Z,29.40
2019-01-17T13:49:50.909Z,29.70
2019-01-17T13:52:31.538Z,30.40
2019-01-17T13:55:12.857Z,30.70
2019-01-17T13:57:54.344Z,29.40
2019-01-17T14:00:35.716Z,28.60
2019-01-17T14:03:17.177Z,27.70
2019-01-17T14:05:57.976Z,28.00
2019-01-17T14:08:39.404Z,26.20
2019-01-17T14:11:20.000Z,26.20
2019-01-17T14:14:00.573Z,25.00
2019-01-17T14:16:41.192Z,24.40
2019-01-17T14:19:21.753Z,24.20
2019-01-17T14:22:03.420Z,24.50
2019-01-17T14:24:44.943Z,23.80
2019-01-17T14:27:25.792Z,25.10
2019-01-17T14:30:06.616Z,26.40
2019-01-17T14:32:47.874Z,28.50
2019-01-17T14:35:28.435Z,29.70
2019-01-17T14:38:09.114Z,31.10
2019-01-17T14:40:49.680Z,34.00
2019-01-17T14:43:30.552Z,35.30
2019-01-17T14:46:11.181Z,37.00
2019-01-17T14:48:52.126Z,37.90
2019-01-17T14:51:33.456Z,38.60
2019-01-17T14:54:12.948Z,39.20
2019-01-17T14:59:48.425Z,42.10
2019-01-17T15:02:29.252Z,43.30
2019-01-17T15:05:10.195Z,43.30
2019-01-17T15:07:51.517Z,44.30
2019-01-17T15:10:32.845Z,43.80
2019-01-17T15:13:13.648Z,43.00
2019-01-17T15:15:55.006Z,42.70
2019-01-17T15:18:35.552Z,44.30
2019-01-17T15:21:16.296Z,45.10
2019-01-17T15:23:56.984Z,45.60
2019-01-17T15:26:37.625Z,46.00
2019-01-17T15:29:18.272Z,46.20
2019-01-17T15:31:58.957Z,46.70
2019-01-17T15:34:39.480Z,47.20
2019-01-17T15:37:21.156Z,48.60
2019-01-17T15:40:02.709Z,49.00
2019-01-17T15:42:43.981Z,49.30
2019-01-17T15:45:24.533Z,49.30
2019-01-17T15:48:05.668Z,49.70
2019-01-17T15:50:47.165Z,49.60
2019-01-17T15:53:28.344Z,50.00
2019-01-17T15:56:09.264Z,50.20
2019-01-17T15:58:50.767Z,50.50
2019-01-17T16:01:31.798Z,50.60
2019-01-17T16:04:13.087Z,50.30
2019-01-17T16:06:54.572Z,50.40
2019-01-17T16:09:35.969Z,50.30
2019-01-17T16:12:17.468Z,49.90
2019-01-17T16:14:58.304Z,51.10
2019-01-17T16:17:39.523Z,51.40
2019-01-17T16:20:20.656Z,51.60
2019-01-17T16:23:02.041Z,51.80
2019-01-17T16:25:42.680Z,52.00
2019-01-17T16:28:23.374Z,52.30
2019-01-17T16:31:04.122Z,52.40
2019-01-17T16:33:45.200Z,52.80
2019-01-17T16:36:26.677Z,52.80
2019-01-17T16:39:08.066Z,52.90
2019-01-17T16:44:43.601Z,52.90
2019-01-17T16:47:24.931Z,52.80
2019-01-17T16:50:06.205Z,52.90
2019-01-17T16:52:46.880Z,53.00
2019-01-17T16:55:27.640Z,53.00
2019-01-17T16:58:08.392Z,53.40
2019-01-17T17:00:49.232Z,53.30
2019-01-17T17:03:30.643Z,53.20
2019-01-17T17:06:11.249Z,53.30
2019-01-17T17:08:51.938Z,53.50
2019-01-17T17:11:32.878Z,53.10
2019-01-17T17:14:14.389Z,53.40
2019-01-17T17:16:55.898Z,53.80
2019-01-17T17:19:37.289Z,54.20
2019-01-17T17:22:18.032Z,54.10
2019-01-17T17:24:57.432Z,54.40
2019-01-17T17:27:38.370Z,54.40
2019-01-17T17:30:19.332Z,54.60
2019-01-17T17:33:00.274Z,54.60
2019-01-17T17:35:41.660Z,54.80
2019-01-17T17:38:22.323Z,54.90
2019-01-17T17:41:03.234Z,55.10
2019-01-17T17:43:43.788Z,54.80
2019-01-17T17:46:24.456Z,54.70
2019-01-17T17:49:05.109Z,55.10
2019-01-17T17:51:46.589Z,55.00
2019-01-17T17:54:27.292Z,55.20
2019-01-17T17:57:07.916Z,55.30
2019-01-17T17:59:49.353Z,55.40
2019-01-17T18:05:25.312Z,56.40
2019-01-17T18:08:06.157Z,56.70
2019-01-17T18:10:46.962Z,57.30
2019-01-17T18:13:28.074Z,58.30
2019-01-17T18:16:08.688Z,57.20
2019-01-17T18:18:50.097Z,56.70
2019-01-17T18:21:30.811Z,56.50
2019-01-17T18:24:12.285Z,57.40
2019-01-17T18:26:53.664Z,56.80
2019-01-17T18:29:34.253Z,56.30
2019-01-17T18:32:15.156Z,55.60
2019-01-17T18:34:55.977Z,54.70
2019-01-17T18:37:36.847Z,53.70
2019-01-17T18:40:17.636Z,53.30
2019-01-17T18:42:58.263Z,52.60
2019-01-17T18:45:38.842Z,52.20
2019-01-17T18:48:19.517Z,51.60
2019-01-17T18:51:00.420Z,51.60
2019-01-17T18:53:39.901Z,51.60
2019-01-17T18:59:27.928Z,51.60
2019-01-17T19:02:08.705Z,52.00
2019-01-17T19:04:50.088Z,52.70
2019-01-17T19:07:31.477Z,53.00
2019-01-17T19:10:12.281Z,53.20
2019-01-17T19:12:53.788Z,53.50
2019-01-17T19:15:34.381Z,53.80
2019-01-17T19:18:15.724Z,54.10
2019-01-17T19:20:56.669Z,54.30
2019-01-17T19:23:37.233Z,54.60
2019-01-17T19:26:18.632Z,54.90
2019-01-17T19:28:59.484Z,55.00
2019-01-17T19:31:40.329Z,55.00
2019-01-17T19:34:21.096Z,55.40
2019-01-17T19:37:02.057Z,55.60
2019-01-17T19:39:41.529Z,56.00
2019-01-17T19:42:22.772Z,56.30
2019-01-17T19:45:04.704Z,56.40
2019-01-17T19:47:45.852Z,56.70
2019-01-17T19:50:27.393Z,57.20
2019-01-17T19:53:08.741Z,57.40
2019-01-17T19:55:50.151Z,57.60
2019-01-17T19:58:31.544Z,58.40
2019-01-17T20:01:12.144Z,58.50
2019-01-17T20:03:52.715Z,58.80
2019-01-17T20:06:34.121Z,59.00
2019-01-17T20:09:17.003Z,59.10
2019-01-17T20:11:57.825Z,59.20
2019-01-17T20:14:39.712Z,59.50
2019-01-17T20:17:20.425Z,59.40
2019-01-17T20:20:01.796Z,59.40
2019-01-17T20:22:43.224Z,59.20
2019-01-17T20:25:24.132Z,59.10
2019-01-17T20:28:04.765Z,59.20
2019-01-17T20:30:45.536Z,59.40
2019-01-17T20:33:26.184Z,59.50
2019-01-17T20:36:06.720Z,59.70
2019-01-17T20:38:47.696Z,60.40
2019-01-17T20:41:28.315Z,60.80
2019-01-17T20:44:09.104Z,61.80
2019-01-17T20:46:49.918Z,62.20
2019-01-17T20:49:29.500Z,62.80
2019-01-17T20:52:10.958Z,62.70
2019-01-17T20:54:50.379Z,63.40
2019-01-17T20:57:31.601Z,63.50
2019-01-17T21:00:12.445Z,64.00
2019-01-17T21:02:53.656Z,65.10
2019-01-17T21:05:33.324Z,65.50
2019-01-17T21:08:21.665Z,66.30
2019-01-17T21:11:02.845Z,66.50
2019-01-17T21:13:43.444Z,66.90
2019-01-17T21:16:24.213Z,67.00
2019-01-17T21:19:05.656Z,66.40
2019-01-17T21:21:45.092Z,66.50
2019-01-17T21:27:33.640Z,66.70
2019-01-17T21:30:14.366Z,66.70
2019-01-17T21:32:55.502Z,67.10
2019-01-17T21:35:36.535Z,66.90
2019-01-17T21:38:18.124Z,66.80
2019-01-17T21:40:59.504Z,67.30
2019-01-17T21:43:40.623Z,67.20
2019-01-17T21:46:22.081Z,66.70
2019-01-17T21:49:03.440Z,66.60
2019-01-17T21:51:44.044Z,65.60
2019-01-17T21:54:25.480Z,65.50
2019-01-17T21:57:07.017Z,65.70
2019-01-17T21:59:47.692Z,66.10
2019-01-17T22:02:29.067Z,66.10
2019-01-17T22:05:09.656Z,65.80
2019-01-17T22:07:50.256Z,64.70
2019-01-17T22:10:31.648Z,64.20
2019-01-17T22:13:12.520Z,64.20
2019-01-17T22:15:53.356Z,62.90
2019-01-17T22:18:34.669Z,62.50
2019-01-17T22:21:15.319Z,62.40
2019-01-17T22:23:54.747Z,61.60
2019-01-17T22:29:44.978Z,61.90
2019-01-17T22:32:25.749Z,61.70
2019-01-17T22:35:06.340Z,61.10
2019-01-17T22:37:46.876Z,60.40
2019-01-17T22:40:27.789Z,60.30
2019-01-17T22:43:08.627Z,59.90
2019-01-17T22:45:50.057Z,60.00
2019-01-17T22:48:30.840Z,59.90
2019-01-17T22:51:11.537Z,59.20
2019-01-17T22:53:52.529Z,59.20
2019-01-17T22:56:33.108Z,58.90
2019-01-17T22:59:13.975Z,58.80
2019-01-17T23:01:54.588Z,58.70
2019-01-17T23:04:35.135Z,58.90
2019-01-17T23:07:15.687Z,58.50
2019-01-17T23:09:56.499Z,58.50
2019-01-17T23:12:37.828Z,58.00
2019-01-17T23:15:18.474Z,57.50
2019-01-17T23:17:59.160Z,57.50
2019-01-17T23:20:40.661Z,57.20
2019-01-17T23:23:21.286Z,56.60
2019-01-17T23:26:02.707Z,56.70
2019-01-17T23:28:43.476Z,56.80
2019-01-17T23:31:24.420Z,57.20
2019-01-17T23:34:05.336Z,57.20
2019-01-17T23:36:48.849Z,57.10
2019-01-17T23:39:28.601Z,57.40
2019-01-17T23:42:09.491Z,57.80
2019-01-17T23:44:50.761Z,57.90
2019-01-17T23:47:31.601Z,58.30
2019-01-17T23:50:12.529Z,58.50
2019-01-17T23:52:53.092Z,58.60
2019-01-17T23:55:33.968Z,58.60
2019-01-17T23:58:14.856Z,58.70
